Time;durP1;ratioP1;P1;durP2;ratioP2;P2;SDS_P1;SDS_P2;PMS_P1;PMS_P2;Temp;Humidity;BMP_temperature;BMP_pressure;BME280_temperature;BME280_humidity;BME280_pressure;Samples;Min_cycle;Max_cycle;Signal;HPM_P1;HPM_P2
2022/03/22 00:01:17;;;;;;;40.60;26.60;;;;;;;9.29;73.13;102944.06;5014109;28;20060;-79
2022/03/22 00:03:45;;;;;;;41.90;26.93;;;;;;;9.28;73.16;102945.06;5013453;28;21061;-79
2022/03/22 00:06:47;;;;;;;38.17;27.20;;;;;;;9.28;73.08;102950.47;5013467;28;20060;-79
2022/03/22 00:09:13;;;;;;;39.83;27.87;;;;;;;9.26;73.08;102951.63;5020213;28;20481;-78
2022/03/22 00:11:39;;;;;;;39.40;28.53;;;;;;;9.27;73.01;102951.50;5005182;28;20049;-79
2022/03/22 00:14:43;;;;;;;41.37;27.37;;;;;;;9.26;72.91;102951.63;5014319;28;20266;-79
2022/03/22 00:17:09;;;;;;;38.87;28.00;;;;;;;9.24;73.02;102950.94;5007269;28;20033;-79
2022/03/22 00:19:34;;;;;;;40.03;28.13;;;;;;;9.19;72.87;102948.66;5029915;28;20544;-79
2022/03/22 00:22:02;;;;;;;40.97;28.00;;;;;;;9.16;73.00;102942.72;5015646;28;20041;-79
2022/03/22 00:24:28;;;;;;;38.33;27.27;;;;;;;9.17;73.09;102958.78;5015095;28;20042;-79
2022/03/22 00:26:53;;;;;;;39.93;29.07;;;;;;;9.16;73.30;102954.38;5015650;28;20100;-79
2022/03/22 00:29:19;;;;;;;41.90;28.97;;;;;;;9.12;73.07;102953.84;5014564;28;20098;-79
2022/03/22 00:31:44;;;;;;;38.77;28.53;;;;;;;9.08;73.16;102952.44;5015198;28;20111;-79
2022/03/22 00:34:13;;;;;;;45.17;28.87;;;;;;;9.04;73.35;102948.31;5014679;28;20109;-79
2022/03/22 00:36:41;;;;;;;42.03;28.87;;;;;;;9.06;73.41;102959.00;5014690;28;20453;-79
2022/03/22 00:39:07;;;;;;;41.80;28.73;;;;;;;9.01;73.64;102958.59;5014687;28;20037;-78
2022/03/22 00:41:32;;;;;;;41.40;29.10;;;;;;;9.01;73.59;102950.50;5030201;28;20048;-79
2022/03/22 00:43:58;;;;;;;39.23;28.17;;;;;;;9.02;73.47;102957.59;5014449;28;20444;-79
2022/03/22 00:46:23;;;;;;;44.90;29.90;;;;;;;8.99;73.40;102955.19;5014593;28;20197;-79
2022/03/22 00:48:49;;;;;;;40.40;29.23;;;;;;;8.98;73.28;102959.75;5020738;28;20095;-79
2022/03/22 00:51:15;;;;;;;42.13;29.50;;;;;;;8.98;73.33;102958.91;5014862;28;20067;-79
2022/03/22 00:53:41;;;;;;;39.20;28.53;;;;;;;9.01;73.20;102961.31;5014586;28;20037;-79
2022/03/22 00:56:07;;;;;;;40.37;29.50;;;;;;;8.99;73.13;102952.47;5012794;28;20041;-79
2022/03/22 00:58:32;;;;;;;40.33;28.47;;;;;;;9.00;72.95;102965.00;5014564;28;20555;-79
2022/03/22 01:00:59;;;;;;;38.47;27.10;;;;;;;8.91;73.14;102954.09;5015052;28;20083;-79
2022/03/22 01:03:27;;;;;;;39.37;27.70;;;;;;;8.94;73.21;102959.19;5012769;28;21225;-78
2022/03/22 01:05:52;;;;;;;41.63;27.50;;;;;;;8.91;73.06;102964.06;5014209;28;20058;-78
2022/03/22 01:08:18;;;;;;;40.60;28.13;;;;;;;8.85;73.12;102962.78;5014719;28;20029;-79
2022/03/22 01:10:52;;;;;;;40.70;27.77;;;;;;;8.85;73.50;102965.47;5015375;28;20049;-79
2022/03/22 01:13:27;;;;;;;41.00;27.33;;;;;;;8.80;73.48;102962.38;5033443;28;20699;-79
2022/03/22 01:15:53;;;;;;;37.93;28.10;;;;;;;8.78;73.18;102973.34;5018311;28;20041;-79
2022/03/22 01:18:20;;;;;;;40.47;28.47;;;;;;;8.77;73.65;102968.06;5018087;28;20072;-79
2022/03/22 01:20:48;;;;;;;39.33;28.77;;;;;;;8.72;73.79;102967.69;5017985;28;20116;-79
2022/03/22 01:23:15;;;;;;;40.03;28.43;;;;;;;8.73;73.64;102969.38;5017458;28;20029;-79
2022/03/22 01:25:41;;;;;;;43.87;29.77;;;;;;;8.69;73.83;102959.84;5010283;28;20064;-79
2022/03/22 01:28:08;;;;;;;38.20;27.83;;;;;;;8.72;73.63;102970.38;5017948;28;20034;-78
2022/03/22 01:30:34;;;;;;;39.60;27.33;;;;;;;8.71;73.52;102971.38;5018437;28;20041;-79
2022/03/22 01:32:59;;;;;;;40.70;27.67;;;;;;;8.69;73.43;102968.81;5016530;28;20048;-79
2022/03/22 01:35:25;;;;;;;37.60;26.97;;;;;;;8.69;73.61;102967.94;5018065;28;20600;-79
2022/03/22 01:37:52;;;;;;;40.70;27.07;;;;;;;8.68;73.44;102963.56;5017623;28;20124;-79
2022/03/22 01:40:20;;;;;;;38.67;27.80;;;;;;;8.63;73.59;102965.84;5017719;28;20132;-79
2022/03/22 01:42:47;;;;;;;36.50;26.53;;;;;;;8.63;73.48;102971.25;5008479;28;20025;-79
2022/03/22 01:45:15;;;;;;;35.10;25.77;;;;;;;8.62;73.42;102967.69;5016805;28;20045;-79
2022/03/22 01:47:42;;;;;;;35.63;25.70;;;;;;;8.55;73.56;102959.31;5018126;28;20118;-79
2022/03/22 01:50:11;;;;;;;36.83;27.00;;;;;;;8.44;73.77;102952.22;5017006;28;20514;-79
2022/03/22 01:52:39;;;;;;;35.03;25.83;;;;;;;8.50;73.74;102961.63;5017421;28;20029;-79
2022/03/22 01:55:09;;;;;;;36.87;25.47;;;;;;;8.48;73.92;102958.22;5016982;28;20432;-79
2022/03/22 01:57:34;;;;;;;39.00;25.70;;;;;;;8.50;73.66;102961.63;5017055;28;20037;-78
2022/03/22 02:00:04;;;;;;;36.77;25.30;;;;;;;8.47;73.67;102956.50;5017184;28;20095;-79
2022/03/22 02:08:01;;;;;;;36.87;24.67;;;;;;;8.37;73.74;102956.50;5017357;28;20052;-80
2022/03/22 02:10:27;;;;;;;33.53;24.03;;;;;;;8.40;73.76;102958.06;5016808;28;20499;-79
2022/03/22 02:12:53;;;;;;;35.23;24.37;;;;;;;8.42;73.62;102953.38;5033200;28;21442;-80
2022/03/22 02:15:19;;;;;;;34.17;24.57;;;;;;;8.41;73.43;102957.06;5008665;28;20068;-79
2022/03/22 02:17:45;;;;;;;37.43;24.23;;;;;;;8.41;73.32;102952.50;5017066;28;20129;-78
2022/03/22 02:20:14;;;;;;;35.70;24.43;;;;;;;8.41;73.43;102948.97;5017025;28;20220;-79
2022/03/22 02:22:48;;;;;;;33.27;23.63;;;;;;;8.43;73.15;102952.34;5016557;28;20045;-79
2022/03/22 02:25:15;;;;;;;34.40;24.60;;;;;;;8.39;73.20;102954.50;5016315;28;20056;-79
2022/03/22 02:27:48;;;;;;;35.33;23.80;;;;;;;8.39;73.20;102954.50;5017327;28;20237;-78
2022/03/22 02:30:15;;;;;;;34.83;23.63;;;;;;;8.43;73.05;102955.06;5031100;28;20045;-78
2022/03/22 02:32:52;;;;;;;33.70;24.00;;;;;;;8.39;73.03;102950.94;5017038;28;20743;-79
2022/03/22 02:35:18;;;;;;;34.00;23.80;;;;;;;8.37;73.00;102958.34;5016330;28;20039;-78
2022/03/22 02:37:44;;;;;;;35.00;23.97;;;;;;;8.34;73.02;102955.94;5016867;28;20048;-78
2022/03/22 02:40:12;;;;;;;36.10;23.57;;;;;;;8.29;72.89;102950.97;5016731;28;20081;-78
2022/03/22 02:42:37;;;;;;;34.80;23.50;;;;;;;8.26;73.07;102949.41;5017082;28;20044;-79
2022/03/22 02:45:03;;;;;;;34.53;23.83;;;;;;;8.21;73.02;102948.97;5016031;28;20401;-78
2022/03/22 02:47:28;;;;;;;33.67;23.37;;;;;;;8.21;72.96;102948.97;5016945;28;20033;-79
2022/03/22 02:49:54;;;;;;;33.27;23.13;;;;;;;8.14;73.12;102958.66;4998753;28;20426;-78
2022/03/22 02:52:19;;;;;;;36.23;24.53;;;;;;;8.10;73.20;102954.53;5015553;28;20045;-78
2022/03/22 02:54:44;;;;;;;33.77;23.47;;;;;;;8.09;72.96;102955.53;5016511;28;20121;-79
2022/03/22 02:57:10;;;;;;;34.13;23.83;;;;;;;7.99;73.66;102952.00;5016380;28;20055;-78
2022/03/22 02:59:36;;;;;;;33.60;23.80;;;;;;;7.89;73.59;102954.72;5015294;28;20444;-79
2022/03/22 03:02:05;;;;;;;36.30;24.07;;;;;;;7.88;73.73;102951.13;5022162;28;20056;-78
2022/03/22 03:04:30;;;;;;;36.57;23.77;;;;;;;7.78;73.65;102953.00;5015947;28;20037;-79
2022/03/22 03:06:55;;;;;;;34.37;23.60;;;;;;;7.76;73.90;102953.16;5016499;28;20425;-78
2022/03/22 03:09:21;;;;;;;34.20;23.93;;;;;;;7.65;74.17;102955.97;5016159;28;20060;-78
2022/03/22 03:11:46;;;;;;;34.67;23.80;;;;;;;7.64;74.41;102956.94;5016276;28;20592;-78
2022/03/22 03:16:56;;;;;;;34.03;24.13;;;;;;;7.38;74.37;102956.63;5015824;28;20059;-78
2022/03/22 03:19:21;;;;;;;33.30;24.30;;;;;;;7.39;74.82;102956.50;5015981;28;20037;-78
2022/03/22 03:21:47;;;;;;;33.43;23.63;;;;;;;7.41;75.13;102962.63;5015925;28;20040;-78
2022/03/22 03:24:12;;;;;;;35.03;24.40;;;;;;;7.29;75.18;102961.03;5015348;28;20042;-78
2022/03/22 03:27:06;;;;;;;36.73;24.37;;;;;;;7.22;75.46;102955.31;5015800;28;20116;-78
2022/03/22 03:29:31;;;;;;;37.17;24.40;;;;;;;7.17;75.55;102962.13;5015532;28;20350;-78
2022/03/22 03:31:57;;;;;;;36.47;24.77;;;;;;;7.16;76.11;102968.50;5015506;28;20837;-77
2022/03/22 03:34:22;;;;;;;37.60;24.63;;;;;;;7.07;76.25;102960.25;5015147;28;20045;-78
2022/03/22 03:36:48;;;;;;;37.60;25.80;;;;;;;7.00;77.03;102967.16;5015795;28;20041;-78
2022/03/22 03:39:15;;;;;;;36.37;24.80;;;;;;;6.87;77.68;102959.31;5014037;28;20102;-78
2022/03/22 03:41:53;;;;;;;37.97;25.60;;;;;;;6.91;77.45;102970.69;5014183;28;20029;-78
2022/03/22 03:47:10;;;;;;;37.47;25.33;;;;;;;6.91;77.23;102970.69;5014537;28;20467;-78
2022/03/22 03:49:50;;;;;;;34.50;24.67;;;;;;;6.92;77.13;102977.75;5007000;28;20496;-78
2022/03/22 03:52:18;;;;;;;37.97;26.07;;;;;;;6.88;77.08;102977.19;5006951;28;21308;-78
2022/03/22 03:54:44;;;;;;;36.60;25.97;;;;;;;6.84;77.36;102969.50;5004203;28;20053;-77
2022/03/22 03:57:10;;;;;;;35.80;25.23;;;;;;;6.86;77.37;102972.94;5015328;28;21528;-78
2022/03/22 03:59:37;;;;;;;35.13;25.27;;;;;;;6.82;77.38;102977.72;5015403;28;20069;-78
2022/03/22 04:02:06;;;;;;;37.23;25.20;;;;;;;6.84;77.46;102981.16;5015144;28;20061;-78
2022/03/22 04:04:31;;;;;;;36.23;25.70;;;;;;;6.80;77.23;102984.22;5007349;28;20484;-79
2022/03/22 04:06:57;;;;;;;37.47;25.03;;;;;;;6.80;77.31;102979.72;5014077;28;20084;-79
2022/03/22 04:09:23;;;;;;;35.63;24.73;;;;;;;6.84;77.48;102983.84;5015621;28;20089;-79
2022/03/22 04:11:48;;;;;;;35.00;24.57;;;;;;;6.88;77.35;102985.28;5013589;28;20065;-78
2022/03/22 04:14:14;;;;;;;35.00;25.33;;;;;;;6.86;77.80;102989.09;5015770;28;20511;-78
2022/03/22 04:16:41;;;;;;;35.83;24.90;;;;;;;6.90;77.23;102985.97;5004119;28;20037;-78
2022/03/22 04:19:07;;;;;;;36.60;24.47;;;;;;;6.77;76.72;102979.97;5015194;28;20477;-78
2022/03/22 04:21:34;;;;;;;33.10;23.80;;;;;;;6.86;77.06;102987.25;5014696;28;20512;-78
2022/03/22 04:24:07;;;;;;;35.60;25.27;;;;;;;6.83;76.94;102990.22;5015853;28;20045;-78
2022/03/22 04:26:37;;;;;;;35.13;24.53;;;;;;;6.83;76.52;102992.06;5015246;28;20071;-78
2022/03/22 04:32:41;;;;;;;35.67;23.63;;;;;;;6.75;76.81;102987.34;5014953;28;20081;-79
2022/03/22 04:34:41;;;;;;;35.63;24.63;;;;;;;6.77;76.95;102996.13;5014302;28;20519;-78
2022/03/22 04:37:08;;;;;;;33.73;24.37;;;;;;;6.76;76.80;102994.44;5015023;28;20045;-78
2022/03/22 04:39:34;;;;;;;35.63;24.03;;;;;;;6.76;76.84;102991.75;5014966;28;20428;-78
2022/03/22 04:42:01;;;;;;;37.57;25.60;;;;;;;6.59;76.94;102987.81;5014909;28;20037;-78
2022/03/22 04:44:28;;;;;;;35.50;24.57;;;;;;;6.61;77.37;102987.66;5013826;28;20714;-78
2022/03/22 04:46:54;;;;;;;34.70;24.77;;;;;;;6.53;77.09;102986.50;5008051;28;20053;-78
2022/03/22 04:49:20;;;;;;;34.97;24.40;;;;;;;6.50;77.27;102994.84;5018507;28;20077;-78
2022/03/22 04:57:14;;;;;;;34.72;24.92;;;;;;;6.43;77.29;102999.03;5018532;28;20056;-78
2022/03/22 04:59:39;;;;;;;31.80;23.67;;;;;;;6.43;77.67;102999.03;5018032;28;20038;-78
2022/03/22 05:02:05;;;;;;;37.13;26.03;;;;;;;6.35;78.13;103001.53;5018337;28;20136;-78
2022/03/22 05:04:30;;;;;;;36.30;25.43;;;;;;;6.38;78.15;103006.69;5018879;28;20480;-78
2022/03/22 05:06:56;;;;;;;35.07;23.97;;;;;;;6.25;78.71;103001.47;5018710;28;20470;-78
2022/03/22 05:09:29;;;;;;;32.77;23.60;;;;;;;6.19;78.34;103008.22;5016832;28;20083;-78
2022/03/22 05:11:55;;;;;;;33.57;23.37;;;;;;;6.12;78.83;103012.44;5018353;28;20091;-78
2022/03/22 05:14:22;;;;;;;36.03;25.20;;;;;;;6.12;79.13;103011.56;5017551;28;20068;-78
2022/03/22 05:16:47;;;;;;;35.10;24.80;;;;;;;6.06;79.25;103021.84;5018014;28;20029;-78
2022/03/22 05:19:16;;;;;;;34.40;25.27;;;;;;;5.86;79.49;103011.88;5019086;28;20049;-78
2022/03/22 05:21:42;;;;;;;36.70;24.47;;;;;;;5.82;79.81;103010.41;5017942;28;20543;-78
2022/03/22 05:24:10;;;;;;;36.30;24.87;;;;;;;5.75;79.86;103015.44;5018091;28;20257;-78
2022/03/22 05:26:36;;;;;;;36.60;25.70;;;;;;;5.83;79.91;103017.50;5017131;28;20087;-78
2022/03/22 05:29:06;;;;;;;38.63;25.67;;;;;;;5.82;80.05;103019.34;5016594;28;20038;-79
2022/03/22 05:31:32;;;;;;;38.30;26.47;;;;;;;5.88;80.14;103026.91;5018098;28;20069;-78
2022/03/22 05:34:01;;;;;;;36.87;25.63;;;;;;;5.75;80.15;103020.81;5018062;28;20033;-79
2022/03/22 05:36:27;;;;;;;35.97;26.27;;;;;;;5.88;80.17;103039.50;5017638;28;20051;-79
2022/03/22 05:38:53;;;;;;;38.70;25.50;;;;;;;5.87;80.05;103033.25;5018059;28;20087;-79
2022/03/22 05:41:20;;;;;;;34.90;25.97;;;;;;;5.86;80.25;103039.66;5017124;28;20037;-78
2022/03/22 05:43:46;;;;;;;39.30;25.53;;;;;;;5.86;80.21;103031.56;5017776;28;20233;-78
2022/03/22 05:46:11;;;;;;;36.20;25.57;;;;;;;5.86;80.06;103042.34;5017405;28;20061;-78
2022/03/22 05:48:39;;;;;;;40.37;25.93;;;;;;;5.89;80.17;103044.75;5033184;28;20092;-78
2022/03/22 05:51:05;;;;;;;39.50;26.47;;;;;;;5.95;80.01;103042.56;5016951;28;20125;-78
2022/03/22 05:53:31;;;;;;;38.27;25.50;;;;;;;5.97;79.85;103037.88;5017653;28;20045;-78
2022/03/22 05:55:57;;;;;;;39.73;26.37;;;;;;;5.99;79.89;103031.44;5017624;28;20037;-78
2022/03/22 05:58:23;;;;;;;37.33;25.70;;;;;;;5.99;79.57;103033.28;5006906;28;20037;-79
2022/03/22 06:00:48;;;;;;;36.27;26.43;;;;;;;6.01;79.79;103036.69;5017354;28;20036;-79
2022/03/22 06:03:14;;;;;;;35.93;25.50;;;;;;;6.02;80.01;103041.09;5008110;28;20045;-78
2022/03/22 06:05:40;;;;;;;35.93;25.30;;;;;;;6.02;79.34;103038.41;5017120;28;20451;-78
2022/03/22 06:08:06;;;;;;;38.40;26.70;;;;;;;6.05;79.62;103043.50;5017416;28;20687;-78
2022/03/22 06:10:32;;;;;;;39.90;25.77;;;;;;;6.06;79.29;103043.38;5017563;28;20073;-78
2022/03/22 06:12:58;;;;;;;36.57;25.97;;;;;;;6.12;79.07;103038.47;5009193;28;20266;-79
2022/03/22 06:15:25;;;;;;;42.40;25.73;;;;;;;6.19;78.91;103045.06;5016383;28;20051;-79
2022/03/22 06:17:56;;;;;;;38.50;25.17;;;;;;;6.22;78.58;103045.66;5031985;28;20556;-79
2022/03/22 06:20:25;;;;;;;35.03;24.93;;;;;;;6.27;78.52;103047.09;5016868;28;20041;-78
2022/03/22 06:22:53;;;;;;;35.33;25.53;;;;;;;6.24;78.63;103045.53;5032373;28;20047;-78
2022/03/22 06:25:19;;;;;;;36.63;25.03;;;;;;;6.25;78.10;103034.63;5016569;28;20485;-79
2022/03/22 06:27:47;;;;;;;39.33;25.70;;;;;;;6.38;77.89;103055.16;5016530;28;20030;-79
2022/03/22 06:30:15;;;;;;;43.13;27.13;;;;;;;6.44;77.89;103054.63;5017026;28;20033;-78
2022/03/22 06:32:51;;;;;;;38.30;25.57;;;;;;;6.49;77.62;103052.38;5016635;28;20432;-79
2022/03/22 06:35:22;;;;;;;34.53;25.53;;;;;;;6.54;77.19;103050.16;5016936;28;20098;-79
2022/03/22 06:37:49;;;;;;;37.20;26.00;;;;;;;6.62;76.90;103060.25;5016987;28;20061;-78
2022/03/22 06:40:19;;;;;;;38.23;26.33;;;;;;;6.68;76.71;103062.44;5016523;28;20045;-78
2022/03/22 06:42:45;;;;;;;36.67;26.17;;;;;;;6.76;76.37;103065.34;5006882;28;20080;-79
2022/03/22 06:45:11;;;;;;;37.87;25.50;;;;;;;6.78;76.18;103051.72;5016267;28;20088;-79
2022/03/22 06:47:39;;;;;;;38.87;26.40;;;;;;;6.91;75.91;103065.84;5016681;28;20041;-78
2022/03/22 06:50:05;;;;;;;39.57;26.37;;;;;;;6.92;75.19;103054.09;5016544;28;21483;-79
2022/03/22 06:52:31;;;;;;;37.97;26.20;;;;;;;7.07;74.92;103061.81;5016740;28;20037;-79
2022/03/22 06:54:57;;;;;;;36.63;25.73;;;;;;;7.16;74.63;103070.94;5016814;28;20897;-79
2022/03/22 06:57:24;;;;;;;38.03;25.33;;;;;;;7.23;74.27;103072.94;5015705;28;20436;-79
2022/03/22 06:59:49;;;;;;;41.57;27.33;;;;;;;7.28;74.00;103071.72;5016524;28;20037;-79
2022/03/22 07:02:14;;;;;;;39.47;26.37;;;;;;;7.39;73.53;103077.84;5015541;28;20411;-79
2022/03/22 07:04:40;;;;;;;39.63;26.37;;;;;;;7.51;73.23;103084.00;5016331;28;20049;-79
2022/03/22 07:07:07;;;;;;;40.03;26.13;;;;;;;7.59;73.04;103077.94;5015830;28;20497;-79
2022/03/22 07:09:33;;;;;;;38.23;26.43;;;;;;;7.63;72.26;103067.72;5016475;28;20634;-79
2022/03/22 07:12:00;;;;;;;38.27;25.67;;;;;;;7.74;71.72;103071.16;5016270;28;20041;-79
2022/03/22 07:14:27;;;;;;;38.27;25.50;;;;;;;7.85;71.21;103074.75;5015986;28;20132;-79
2022/03/22 07:16:54;;;;;;;37.80;26.67;;;;;;;7.95;70.18;103078.28;5016280;28;20033;-79
2022/03/22 07:19:22;;;;;;;36.47;25.43;;;;;;;8.06;70.27;103080.88;5015937;28;20041;-78
2022/03/22 07:21:48;;;;;;;36.07;25.87;;;;;;;8.15;70.17;103068.38;5015913;28;20104;-79
2022/03/22 07:24:15;;;;;;;43.03;26.77;;;;;;;8.31;69.78;103078.63;5031258;28;20052;-78
2022/03/22 07:26:42;;;;;;;39.30;25.97;;;;;;;8.43;69.33;103079.31;5015595;28;20478;-79
2022/03/22 07:29:08;;;;;;;37.83;26.03;;;;;;;8.54;68.81;103084.63;5015971;28;20076;-78
2022/03/22 07:31:38;;;;;;;35.93;24.87;;;;;;;8.62;67.68;103081.19;5015711;28;20128;-78
2022/03/22 07:34:38;;;;;;;37.93;26.33;;;;;;;8.79;68.41;103093.13;5015562;28;20489;-79
2022/03/22 07:37:03;;;;;;;36.13;24.87;;;;;;;8.89;66.92;103093.09;5015526;28;20110;-79
2022/03/22 07:39:29;;;;;;;33.43;24.73;;;;;;;8.98;66.86;103094.94;5014082;28;20404;-79
2022/03/22 07:41:55;;;;;;;34.20;24.83;;;;;;;9.08;66.77;103092.22;5015387;28;20048;-79
2022/03/22 07:44:21;;;;;;;40.67;26.57;;;;;;;9.15;67.13;103093.31;5015628;28;20041;-79
2022/03/22 07:46:47;;;;;;;38.67;25.60;;;;;;;9.24;66.29;103097.00;5015182;28;20033;-80
2022/03/22 07:54:42;;;;;;;36.93;25.23;;;;;;;9.51;63.92;103090.78;5015691;28;19932;-79
2022/03/22 07:57:08;;;;;;;38.17;24.90;;;;;;;9.61;63.62;103097.00;5006594;28;20495;-79
2022/03/22 07:59:34;;;;;;;38.27;25.40;;;;;;;9.84;64.19;103098.44;5007694;28;20056;-79
2022/03/22 08:02:00;;;;;;;36.07;24.87;;;;;;;10.03;63.25;103097.47;5015120;28;21477;-79
2022/03/22 08:04:26;;;;;;;33.80;24.80;;;;;;;10.18;63.13;103095.06;5015139;28;20037;-81
2022/03/22 08:06:51;;;;;;;34.33;24.70;;;;;;;10.37;62.13;103096.81;5011611;28;20152;-79
2022/03/22 08:09:17;;;;;;;35.53;25.10;;;;;;;10.55;62.23;103089.53;5015189;28;20500;-79
2022/03/22 08:11:42;;;;;;;32.37;24.53;;;;;;;10.75;61.30;103092.06;5030514;28;20111;-79
2022/03/22 08:14:08;;;;;;;37.13;25.93;;;;;;;11.01;60.95;103096.63;5015643;28;20041;-79
2022/03/22 08:16:36;;;;;;;36.13;25.20;;;;;;;11.15;59.69;103088.75;5014994;28;20375;-79
2022/03/22 08:19:03;;;;;;;36.40;25.50;;;;;;;11.46;59.26;103096.41;5006995;28;20091;-80
2022/03/22 08:21:28;;;;;;;35.97;25.40;;;;;;;11.61;58.36;103099.34;5014534;28;20053;-81
2022/03/22 08:23:54;;;;;;;34.00;25.30;;;;;;;11.87;57.98;103103.84;5013717;28;20171;-80
2022/03/22 08:26:19;;;;;;;36.53;24.53;;;;;;;12.02;57.99;103103.22;5013840;28;20034;-80
2022/03/22 08:28:45;;;;;;;35.17;24.53;;;;;;;12.26;57.03;103095.13;5013490;28;20049;-81
2022/03/22 08:31:13;;;;;;;33.53;24.47;;;;;;;12.46;55.74;103109.25;5015431;28;20050;-81
2022/03/22 08:33:39;;;;;;;33.00;23.60;;;;;;;12.66;55.07;103101.59;5013653;28;20037;-80
2022/03/22 08:36:04;;;;;;;36.73;25.30;;;;;;;12.95;55.36;103102.09;5015539;28;20060;-79
2022/03/22 08:38:30;;;;;;;33.37;24.83;;;;;;;13.29;53.76;103107.28;5014882;28;20116;-79
2022/03/22 08:40:56;;;;;;;32.87;24.20;;;;;;;13.54;53.37;103109.94;5015561;28;20041;-79
2022/03/22 08:43:24;;;;;;;35.87;24.70;;;;;;;13.72;52.44;103103.41;5020904;28;20041;-80
2022/03/22 08:45:49;;;;;;;31.63;23.77;;;;;;;13.91;51.93;103107.56;5021422;28;21399;-80
2022/03/22 08:48:15;;;;;;;34.33;24.43;;;;;;;14.12;51.17;103104.22;5014347;28;20037;-80
2022/03/22 08:50:42;;;;;;;32.83;24.10;;;;;;;14.21;50.17;103108.59;5015136;28;20612;-80
2022/03/22 08:53:08;;;;;;;34.43;24.57;;;;;;;14.50;52.06;103112.47;5014714;28;20116;-79
2022/03/22 08:55:34;;;;;;;34.07;24.73;;;;;;;14.60;49.42;103112.22;5015097;28;20030;-80
2022/03/22 08:58:05;;;;;;;33.37;24.20;;;;;;;14.81;48.76;103103.34;5014313;28;21292;-80
2022/03/22 09:00:33;;;;;;;34.73;24.20;;;;;;;15.11;49.25;103100.66;5015220;28;20061;-80
2022/03/22 09:02:58;;;;;;;38.60;25.10;;;;;;;15.50;48.41;103105.88;5013122;28;20033;-80
2022/03/22 09:08:08;;;;;;;32.50;23.15;;;;;;;16.35;47.81;103106.22;5014203;28;20043;-80
2022/03/22 09:10:35;;;;;;;33.20;24.77;;;;;;;16.53;45.05;103113.13;5015156;28;20054;-80
2022/03/22 09:13:01;;;;;;;34.10;23.80;;;;;;;16.78;44.55;103099.88;5014833;28;20497;-79
2022/03/22 09:15:27;;;;;;;30.10;22.33;;;;;;;16.99;44.38;103096.25;5015255;28;20025;-81
2022/03/22 09:17:54;;;;;;;32.73;23.60;;;;;;;17.18;42.98;103104.81;5006525;28;20032;-80
2022/03/22 09:20:20;;;;;;;31.75;23.20;;;;;;;17.31;42.35;103104.91;5014877;28;20056;-80
2022/03/22 09:22:51;;;;;;;31.77;23.27;;;;;;;17.28;42.46;103105.28;5014812;28;20029;-82
2022/03/22 09:25:17;;;;;;;31.73;22.33;;;;;;;17.29;41.30;103104.25;5014659;28;20048;-80
2022/03/22 09:27:43;;;;;;;32.33;22.80;;;;;;;17.36;41.56;103101.56;5014875;28;20029;-80
2022/03/22 09:30:11;;;;;;;29.50;22.25;;;;;;;17.53;40.84;103102.91;5014769;28;20129;-80
2022/03/22 09:32:37;;;;;;;30.25;22.63;;;;;;;17.71;40.95;103094.13;5016717;28;20037;-80
2022/03/22 09:35:06;;;;;;;31.20;22.92;;;;;;;17.86;40.03;103106.84;5033313;28;20029;-79
2022/03/22 09:37:35;;;;;;;29.17;22.20;;;;;;;17.99;41.46;103098.69;5018023;28;20040;-81
2022/03/22 09:40:01;;;;;;;29.52;22.55;;;;;;;18.17;39.98;103097.25;5017523;28;20336;-85
2022/03/22 09:42:32;;;;;;;32.15;21.25;;;;;;;18.24;38.49;103098.09;5032683;28;20038;-83
2022/03/22 09:45:01;;;;;;;32.08;22.33;;;;;;;18.22;39.01;103100.19;5023735;28;20114;-83
2022/03/22 09:47:28;;;;;;;28.10;22.33;;;;;;;18.13;37.79;103098.69;5016322;28;20033;-82
2022/03/22 09:49:56;;;;;;;31.00;22.13;;;;;;;18.18;38.61;103096.19;5017984;28;20539;-84
2022/03/22 09:52:22;;;;;;;33.35;22.95;;;;;;;18.11;38.57;103093.41;5017682;28;20121;-84
2022/03/22 09:54:48;;;;;;;29.58;22.73;;;;;;;18.39;38.28;103089.69;5033057;28;20087;-83
2022/03/22 09:57:14;;;;;;;30.45;23.15;;;;;;;18.42;37.77;103083.75;5017665;28;20045;-85
2022/03/22 09:59:39;;;;;;;30.58;23.42;;;;;;;18.64;37.47;103089.06;5008198;28;20096;-83
2022/03/22 10:02:06;;;;;;;32.97;23.23;;;;;;;18.73;36.88;103088.63;5017512;28;20064;-81
2022/03/22 10:04:44;;;;;;;30.70;22.38;;;;;;;19.04;37.83;103086.31;5017732;28;20075;-83
2022/03/22 10:07:19;;;;;;;32.00;22.67;;;;;;;19.21;38.51;103087.50;5017217;28;20049;-82
2022/03/22 10:10:03;;;;;;;30.83;22.13;;;;;;;19.28;38.79;103076.50;5017648;28;20046;-83
2022/03/22 10:12:58;;;;;;;30.88;22.63;;;;;;;19.48;35.77;103078.34;5017308;28;20029;-84
2022/03/22 10:15:32;;;;;;;33.72;23.90;;;;;;;19.60;36.92;103076.59;5016835;28;20425;-81
2022/03/22 10:18:09;;;;;;;30.58;21.85;;;;;;;19.74;35.81;103074.63;5017384;28;20037;-84
2022/03/22 10:20:37;;;;;;;30.23;22.35;;;;;;;19.56;35.93;103072.59;5009345;28;20596;-83
2022/03/22 10:23:06;;;;;;;33.17;23.55;;;;;;;19.45;35.69;103076.00;5017175;28;20037;-81
2022/03/22 10:25:37;;;;;;;30.67;22.33;;;;;;;19.61;34.68;103069.19;5017385;28;20152;-80
2022/03/22 10:28:04;;;;;;;29.77;21.85;;;;;;;19.67;34.26;103066.41;5016531;28;20132;-81
2022/03/22 10:30:31;;;;;;;29.92;22.23;;;;;;;19.86;33.76;103066.56;5017196;28;20244;-80
2022/03/22 10:32:58;;;;;;;35.90;23.10;;;;;;;20.29;35.35;103065.88;5016752;28;20618;-80
2022/03/22 10:35:35;;;;;;;30.73;22.75;;;;;;;20.57;34.06;103056.31;5017017;28;21023;-80
2022/03/22 10:38:06;;;;;;;30.70;22.75;;;;;;;20.39;34.04;103063.44;5016617;28;20064;-79
2022/03/22 10:40:34;;;;;;;31.52;22.08;;;;;;;20.64;34.33;103065.34;5009330;28;20115;-81
2022/03/22 10:43:08;;;;;;;31.83;23.08;;;;;;;20.93;34.68;103063.00;5014836;28;20037;-81
2022/03/22 10:45:56;;;;;;;29.08;22.02;;;;;;;20.95;33.22;103057.25;5017057;28;20535;-80
2022/03/22 10:48:28;;;;;;;29.10;22.65;;;;;;;21.03;31.70;103063.28;5008845;28;20033;-80
2022/03/22 10:50:55;;;;;;;30.60;21.33;;;;;;;21.11;31.10;103056.66;5016238;28;20037;-81
2022/03/22 10:53:23;;;;;;;32.95;22.40;;;;;;;21.11;32.46;103055.81;5016872;28;20406;-81
2022/03/22 10:55:50;;;;;;;32.05;21.30;;;;;;;21.30;32.23;103060.25;5016616;28;20041;-81
2022/03/22 10:58:28;;;;;;;30.60;23.02;;;;;;;21.33;31.63;103057.00;5015797;28;20081;-81
2022/03/22 11:00:55;;;;;;;30.08;22.52;;;;;;;21.29;31.19;103057.72;5016563;28;20056;-80
2022/03/22 11:03:22;;;;;;;30.13;22.15;;;;;;;21.30;31.62;103060.25;5008034;28;20201;-83
2022/03/22 11:05:55;;;;;;;28.65;22.65;;;;;;;21.16;32.99;103056.81;5015106;28;20528;-78
2022/03/22 11:08:22;;;;;;;31.07;21.93;;;;;;;21.54;33.48;103061.25;5015907;28;20063;-76
2022/03/22 11:10:54;;;;;;;29.73;23.02;;;;;;;21.61;31.70;103055.66;5014288;28;20831;-80
2022/03/22 11:13:20;;;;;;;29.70;22.10;;;;;;;21.55;30.96;103051.88;5015796;28;20037;-78
2022/03/22 11:15:47;;;;;;;32.78;23.17;;;;;;;21.56;30.37;103049.97;5016264;28;20037;-79
2022/03/22 11:18:15;;;;;;;28.75;22.00;;;;;;;21.57;30.86;103044.22;5016208;28;20041;-80
2022/03/22 11:20:57;;;;;;;32.83;21.83;;;;;;;21.81;32.53;103049.00;5016652;28;20045;-78
2022/03/22 11:23:24;;;;;;;29.65;22.15;;;;;;;21.74;31.03;103046.34;5015824;28;20037;-79
2022/03/22 11:25:50;;;;;;;32.25;20.20;;;;;;;21.67;30.92;103046.41;5016698;28;20037;-79
2022/03/22 11:28:21;;;;;;;30.70;20.77;;;;;;;21.90;32.42;103033.81;5021918;28;20440;-75
2022/03/22 11:30:47;;;;;;;29.25;19.83;;;;;;;22.07;31.70;103047.75;5016429;28;20049;-77
2022/03/22 11:36:17;;;;;;;30.70;19.63;;;;;;;22.13;31.18;103040.47;5015028;28;20448;-79
2022/03/22 11:38:47;;;;;;;28.95;19.58;;;;;;;22.10;30.39;103041.78;5021916;28;20033;-79
2022/03/22 11:44:23;;;;;;;30.10;20.75;;;;;;;22.02;29.87;103034.66;5014846;28;20524;-82
2022/03/22 11:47:03;;;;;;;30.55;21.10;;;;;;;22.02;30.93;103037.44;5015500;28;20051;-81
2022/03/22 11:49:29;;;;;;;30.48;21.55;;;;;;;21.81;30.13;103032.44;5015782;28;20033;-84
2022/03/22 11:52:12;;;;;;;29.25;21.85;;;;;;;21.85;30.32;103030.91;5016020;28;20044;-82